Missouri River (Missouri), Washington (06935450)

StateMissouriLatestUnknown (43600 cfs)
RiverMissouri RiverRatingObservedEstimated
Updated2022-09-25 20:45 (1 hour ago)Flood - The river is flooding. Obstacles can be treacherous or deadly. The river should be avoided at this stage for casual trips and definitely for the inexperienced. Trips should be attempted only with protective gear and equipment.Flood(none)(none)
Discharge43600 cfs (median: 62500 cfs)High - The river is high and potentially dangerous, especially for the young and / or inexperienced. Normal stream obstacles are sometimes difficult to navigate. Extended distances can be attempted, but canoe travel may not be advisable.High(none)(none)
Height1.48 feetGood - Conditions are ideal for a canoe or kayak. Boats typically will drag on fewer than one-quarter of riffles, if at all, and portages are unnecessary or rare. Normal float lengths can be attempted without a problem.Good(none)(none)
TrendFalling (rising over 24 hours)Low - River is low but can still be floated. Some riffles are okay but most come with significant dragging and might need a portage. Float lengths should be reduced to accommodate low flow, dragging, and portages.Low(none)(none)
USGSExternal icon USGS Site (External icon Duck Duck Go Maps)Poor - River is too low to float comfortably. Most or all riffles will drag or must be portaged and some obstacles (such as slick shelf rock) cause undue problems. Avoid the river at this stage for casual paddling trips.Poor(none)(none)

Trending Data

Plot Image

Trips for Missouri River (Missouri), Washington (06935450)

DateStartEndDistanceConditionDischargeHeightFishingDetails

A total of 0 rows are displayed.

Condition Descriptions

Fishing Conditions

Fish Species

Notes

Classic Trip List

The classic River Trips application is still available for use. It is updated with the new system using a data retrofit. It is no longer maintained. The original River Trips application is no longer updated (as of 1 Dec 2016) but can be checked for errors or for the condition of the data before it was converted to the new system.

Gauge Data Table

ObservationHeightDischargeMaximum
Discharge
Minimum
Discharge
Mean
Discharge
P05P10P20P25P50
(Median)
P75P80P90P95
2022-09-25 20:45 1.48 43600 199000 (2019) 48400 (2021) 88700 49500 50300 62500 106000 143000
2022-09-25 19:45 1.50 43700 199000 (2019) 48400 (2021) 88700 49500 50300 62500 106000 143000
2022-09-25 18:45 1.48 43600 199000 (2019) 48400 (2021) 88700 49500 50300 62500 106000 143000
2022-09-25 17:45 1.50 43700 199000 (2019) 48400 (2021) 88700 49500 50300 62500 106000 143000
2022-09-25 16:45 1.47 43600 199000 (2019) 48400 (2021) 88700 49500 50300 62500 106000 143000
2022-09-25 15:45 1.49 43700 199000 (2019) 48400 (2021) 88700 49500 50300 62500 106000 143000
2022-09-25 14:45 1.44 43400 199000 (2019) 48400 (2021) 88700 49500 50300 62500 106000 143000
2022-09-25 13:45 1.47 43600 199000 (2019) 48400 (2021) 88700 49500 50300 62500 106000 143000
2022-09-25 12:45 1.48 43600 199000 (2019) 48400 (2021) 88700 49500 50300 62500 106000 143000
2022-09-25 11:45 1.45 43500 199000 (2019) 48400 (2021) 88700 49500 50300 62500 106000 143000
2022-09-25 10:45 1.46 43500 199000 (2019) 48400 (2021) 88700 49500 50300 62500 106000 143000
2022-09-25 09:45 1.45 43500 199000 (2019) 48400 (2021) 88700 49500 50300 62500 106000 143000
2022-09-25 08:45 1.46 43500 199000 (2019) 48400 (2021) 88700 49500 50300 62500 106000 143000
2022-09-25 07:45 1.47 43600 199000 (2019) 48400 (2021) 88700 49500 50300 62500 106000 143000
2022-09-25 06:45 1.46 43500 199000 (2019) 48400 (2021) 88700 49500 50300 62500 106000 143000
2022-09-25 05:45 1.45 43500 199000 (2019) 48400 (2021) 88700 49500 50300 62500 106000 143000
2022-09-25 04:45 1.45 43500 199000 (2019) 48400 (2021) 88700 49500 50300 62500 106000 143000
2022-09-25 03:45 1.43 43300 199000 (2019) 48400 (2021) 88700 49500 50300 62500 106000 143000
2022-09-25 02:45 1.44 43400 199000 (2019) 48400 (2021) 88700 49500 50300 62500 106000 143000
2022-09-25 01:45 1.42 43300 199000 (2019) 48400 (2021) 88700 49500 50300 62500 106000 143000
2022-09-25 00:45 1.44 43400 199000 (2019) 48400 (2021) 88700 49500 50300 62500 106000 143000
2022-09-24 23:45 1.43 43300 176000 (2019) 50900 (2020) 88000 51200 51400 61900 110000 136000
2022-09-24 22:45 1.41 43200 176000 (2019) 50900 (2020) 88000 51200 51400 61900 110000 136000
2022-09-24 21:45 1.41 43200 176000 (2019) 50900 (2020) 88000 51200 51400 61900 110000 136000
2022-09-24 20:45 1.42 43300 176000 (2019) 50900 (2020) 88000 51200 51400 61900 110000 136000
2022-09-24 19:45 1.44 43400 176000 (2019) 50900 (2020) 88000 51200 51400 61900 110000 136000
2022-09-24 18:45 1.44 43400 176000 (2019) 50900 (2020) 88000 51200 51400 61900 110000 136000
2022-09-24 17:45 1.39 43100 176000 (2019) 50900 (2020) 88000 51200 51400 61900 110000 136000
2022-09-24 16:45 1.40 43200 176000 (2019) 50900 (2020) 88000 51200 51400 61900 110000 136000
2022-09-24 15:45 1.43 43300 176000 (2019) 50900 (2020) 88000 51200 51400 61900 110000 136000
2022-09-24 14:45 1.41 43200 176000 (2019) 50900 (2020) 88000 51200 51400 61900 110000 136000
2022-09-24 13:45 1.41 43200 176000 (2019) 50900 (2020) 88000 51200 51400 61900 110000 136000
2022-09-24 12:45 1.44 43400 176000 (2019) 50900 (2020) 88000 51200 51400 61900 110000 136000
2022-09-24 11:45 1.40 43200 176000 (2019) 50900 (2020) 88000 51200 51400 61900 110000 136000
2022-09-24 10:45 1.43 43300 176000 (2019) 50900 (2020) 88000 51200 51400 61900 110000 136000
2022-09-24 09:45 1.43 43300 176000 (2019) 50900 (2020) 88000 51200 51400 61900 110000 136000
2022-09-24 08:45 1.42 43300 176000 (2019) 50900 (2020) 88000 51200 51400 61900 110000 136000
2022-09-24 07:45 1.42 43300 176000 (2019) 50900 (2020) 88000 51200 51400 61900 110000 136000
2022-09-24 06:45 1.41 43200 176000 (2019) 50900 (2020) 88000 51200 51400 61900 110000 136000
2022-09-24 05:45 1.39 43100 176000 (2019) 50900 (2020) 88000 51200 51400 61900 110000 136000
2022-09-24 04:45 1.41 43200 176000 (2019) 50900 (2020) 88000 51200 51400 61900 110000 136000
2022-09-24 03:45 1.41 43200 176000 (2019) 50900 (2020) 88000 51200 51400 61900 110000 136000
2022-09-24 02:45 1.40 43200 176000 (2019) 50900 (2020) 88000 51200 51400 61900 110000 136000
2022-09-24 01:45 1.40 43200 176000 (2019) 50900 (2020) 88000 51200 51400 61900 110000 136000
2022-09-24 00:45 1.41 43200 176000 (2019) 50900 (2020) 88000 51200 51400 61900 110000 136000
2022-09-23 23:45 1.40 43200 161000 (2019) 51100 (2020) 87200 53700 55500 60300 116000 134000
2022-09-23 22:45 1.40 43200 161000 (2019) 51100 (2020) 87200 53700 55500 60300 116000 134000
2022-09-23 21:45 1.40 43200 161000 (2019) 51100 (2020) 87200 53700 55500 60300 116000 134000
2022-09-23 20:45 1.39 43100 161000 (2019) 51100 (2020) 87200 53700 55500 60300 116000 134000
2022-09-23 19:45 1.39 43100 161000 (2019) 51100 (2020) 87200 53700 55500 60300 116000 134000
2022-09-23 18:45 1.39 43100 161000 (2019) 51100 (2020) 87200 53700 55500 60300 116000 134000
2022-09-23 17:45 1.39 43100 161000 (2019) 51100 (2020) 87200 53700 55500 60300 116000 134000
2022-09-23 16:45 1.38 43100 161000 (2019) 51100 (2020) 87200 53700 55500 60300 116000 134000
2022-09-23 15:45 1.37 43000 161000 (2019) 51100 (2020) 87200 53700 55500 60300 116000 134000
2022-09-23 14:45 1.37 43000 161000 (2019) 51100 (2020) 87200 53700 55500 60300 116000 134000
2022-09-23 13:45 1.36 42900 161000 (2019) 51100 (2020) 87200 53700 55500 60300 116000 134000
2022-09-23 12:45 1.32 42700 161000 (2019) 51100 (2020) 87200 53700 55500 60300 116000 134000
2022-09-23 11:45 1.37 43000 161000 (2019) 51100 (2020) 87200 53700 55500 60300 116000 134000
2022-09-23 10:45 1.36 42900 161000 (2019) 51100 (2020) 87200 53700 55500 60300 116000 134000
2022-09-23 09:45 1.35 42900 161000 (2019) 51100 (2020) 87200 53700 55500 60300 116000 134000
2022-09-23 08:45 1.35 42900 161000 (2019) 51100 (2020) 87200 53700 55500 60300 116000 134000
2022-09-23 07:45 1.34 42800 161000 (2019) 51100 (2020) 87200 53700 55500 60300 116000 134000
2022-09-23 06:45 1.34 42800 161000 (2019) 51100 (2020) 87200 53700 55500 60300 116000 134000
2022-09-23 05:45 1.33 42800 161000 (2019) 51100 (2020) 87200 53700 55500 60300 116000 134000
2022-09-23 04:45 1.33 42800 161000 (2019) 51100 (2020) 87200 53700 55500 60300 116000 134000
2022-09-23 03:45 1.33 42800 161000 (2019) 51100 (2020) 87200 53700 55500 60300 116000 134000
2022-09-23 02:45 1.33 42800 161000 (2019) 51100 (2020) 87200 53700 55500 60300 116000 134000
2022-09-23 01:45 1.32 42700 161000 (2019) 51100 (2020) 87200 53700 55500 60300 116000 134000
2022-09-23 00:45 1.33 42800 161000 (2019) 51100 (2020) 87200 53700 55500 60300 116000 134000
2022-09-22 23:45 1.33 42800 163000 (2019) 51300 (2020) 89400 52000 52400 61000 128000 142000
2022-09-22 22:45 1.33 42800 163000 (2019) 51300 (2020) 89400 52000 52400 61000 128000 142000
2022-09-22 21:45 1.33 42800 163000 (2019) 51300 (2020) 89400 52000 52400 61000 128000 142000
2022-09-22 20:45 1.34 42800 163000 (2019) 51300 (2020) 89400 52000 52400 61000 128000 142000
2022-09-22 19:45 1.33 42800 163000 (2019) 51300 (2020) 89400 52000 52400 61000 128000 142000
2022-09-22 18:45 1.33 42800 163000 (2019) 51300 (2020) 89400 52000 52400 61000 128000 142000
2022-09-22 17:45 1.34 42800 163000 (2019) 51300 (2020) 89400 52000 52400 61000 128000 142000
2022-09-22 16:45 1.33 42800 163000 (2019) 51300 (2020) 89400 52000 52400 61000 128000 142000
2022-09-22 15:45 1.32 42700 163000 (2019) 51300 (2020) 89400 52000 52400 61000 128000 142000
2022-09-22 14:45 1.34 42800 163000 (2019) 51300 (2020) 89400 52000 52400 61000 128000 142000
2022-09-22 13:45 1.33 42800 163000 (2019) 51300 (2020) 89400 52000 52400 61000 128000 142000
2022-09-22 12:45 1.35 42900 163000 (2019) 51300 (2020) 89400 52000 52400 61000 128000 142000
2022-09-22 11:45 1.34 42800 163000 (2019) 51300 (2020) 89400 52000 52400 61000 128000 142000
2022-09-22 10:45 1.34 42800 163000 (2019) 51300 (2020) 89400 52000 52400 61000 128000 142000
2022-09-22 09:45 1.38 43100 163000 (2019) 51300 (2020) 89400 52000 52400 61000 128000 142000
2022-09-22 08:45 1.35 42900 163000 (2019) 51300 (2020) 89400 52000 52400 61000 128000 142000
2022-09-22 07:45 1.34 42800 163000 (2019) 51300 (2020) 89400 52000 52400 61000 128000 142000
2022-09-22 06:45 1.36 42900 163000 (2019) 51300 (2020) 89400 52000 52400 61000 128000 142000
2022-09-22 05:45 1.36 42900 163000 (2019) 51300 (2020) 89400 52000 52400 61000 128000 142000
2022-09-22 04:45 1.36 42900 163000 (2019) 51300 (2020) 89400 52000 52400 61000 128000 142000
2022-09-22 03:45 1.36 42900 163000 (2019) 51300 (2020) 89400 52000 52400 61000 128000 142000
2022-09-22 02:45 1.35 42900 163000 (2019) 51300 (2020) 89400 52000 52400 61000 128000 142000
2022-09-22 01:45 1.36 42900 163000 (2019) 51300 (2020) 89400 52000 52400 61000 128000 142000
2022-09-22 00:45 1.35 42900 163000 (2019) 51300 (2020) 89400 52000 52400 61000 128000 142000
2022-09-21 23:45 1.39 43100 168000 (2019) 49500 (2021) 91000 50900 51800 60400 135000 148000
2022-09-21 22:45 1.37 43000 168000 (2019) 49500 (2021) 91000 50900 51800 60400 135000 148000
2022-09-21 21:45 1.38 43100 168000 (2019) 49500 (2021) 91000 50900 51800 60400 135000 148000
2022-09-21 20:45 1.37 43000 168000 (2019) 49500 (2021) 91000 50900 51800 60400 135000 148000
2022-09-21 19:45 1.37 43000 168000 (2019) 49500 (2021) 91000 50900 51800 60400 135000 148000
2022-09-21 18:45 1.37 43000 168000 (2019) 49500 (2021) 91000 50900 51800 60400 135000 148000
2022-09-21 17:45 1.37 43000 168000 (2019) 49500 (2021) 91000 50900 51800 60400 135000 148000
2022-09-21 16:45 1.36 42900 168000 (2019) 49500 (2021) 91000 50900 51800 60400 135000 148000
2022-09-21 15:45 1.35 42900 168000 (2019) 49500 (2021) 91000 50900 51800 60400 135000 148000
2022-09-21 14:45 1.36 42900 168000 (2019) 49500 (2021) 91000 50900 51800 60400 135000 148000
2022-09-21 13:45 1.36 42900 168000 (2019) 49500 (2021) 91000 50900 51800 60400 135000 148000
2022-09-21 12:45 1.36 42900 168000 (2019) 49500 (2021) 91000 50900 51800 60400 135000 148000
2022-09-21 11:45 1.29 42600 168000 (2019) 49500 (2021) 91000 50900 51800 60400 135000 148000
2022-09-21 10:45 1.36 42900 168000 (2019) 49500 (2021) 91000 50900 51800 60400 135000 148000
2022-09-21 09:45 1.37 43000 168000 (2019) 49500 (2021) 91000 50900 51800 60400 135000 148000
2022-09-21 08:45 1.37 43000 168000 (2019) 49500 (2021) 91000 50900 51800 60400 135000 148000
2022-09-21 07:45 1.37 43000 168000 (2019) 49500 (2021) 91000 50900 51800 60400 135000 148000
2022-09-21 06:45 1.36 42900 168000 (2019) 49500 (2021) 91000 50900 51800 60400 135000 148000
2022-09-21 05:45 1.38 43100 168000 (2019) 49500 (2021) 91000 50900 51800 60400 135000 148000
2022-09-21 04:45 1.36 42900 168000 (2019) 49500 (2021) 91000 50900 51800 60400 135000 148000
2022-09-21 03:45 1.37 43000 168000 (2019) 49500 (2021) 91000 50900 51800 60400 135000 148000
2022-09-21 02:45 1.37 43000 168000 (2019) 49500 (2021) 91000 50900 51800 60400 135000 148000
2022-09-21 01:45 1.38 43100 168000 (2019) 49500 (2021) 91000 50900 51800 60400 135000 148000
2022-09-21 00:45 1.38 43100 168000 (2019) 49500 (2021) 91000 50900 51800 60400 135000 148000
2022-09-20 23:45 1.38 43100 167000 (2019) 49400 (2021) 89100 51300 52500 64100 118000 138000
2022-09-20 22:45 1.40 43200 167000 (2019) 49400 (2021) 89100 51300 52500 64100 118000 138000
2022-09-20 21:45 1.39 43100 167000 (2019) 49400 (2021) 89100 51300 52500 64100 118000 138000
2022-09-20 20:45 1.40 43200 167000 (2019) 49400 (2021) 89100 51300 52500 64100 118000 138000
2022-09-20 19:45 1.41 43200 167000 (2019) 49400 (2021) 89100 51300 52500 64100 118000 138000
2022-09-20 18:45 1.40 43200 167000 (2019) 49400 (2021) 89100 51300 52500 64100 118000 138000
2022-09-20 17:45 1.40 43200 167000 (2019) 49400 (2021) 89100 51300 52500 64100 118000 138000
2022-09-20 16:45 1.41 43200 167000 (2019) 49400 (2021) 89100 51300 52500 64100 118000 138000
2022-09-20 15:45 1.41 43200 167000 (2019) 49400 (2021) 89100 51300 52500 64100 118000 138000
2022-09-20 14:45 1.40 43200 167000 (2019) 49400 (2021) 89100 51300 52500 64100 118000 138000
2022-09-20 13:45 1.41 43200 167000 (2019) 49400 (2021) 89100 51300 52500 64100 118000 138000
2022-09-20 12:45 1.42 43300 167000 (2019) 49400 (2021) 89100 51300 52500 64100 118000 138000
2022-09-20 11:45 1.41 43200 167000 (2019) 49400 (2021) 89100 51300 52500 64100 118000 138000
2022-09-20 10:45 1.20 42100 167000 (2019) 49400 (2021) 89100 51300 52500 64100 118000 138000
2022-09-20 09:45 1.42 43300 167000 (2019) 49400 (2021) 89100 51300 52500 64100 118000 138000
2022-09-20 08:45 1.40 43200 167000 (2019) 49400 (2021) 89100 51300 52500 64100 118000 138000
2022-09-20 07:45 1.40 43200 167000 (2019) 49400 (2021) 89100 51300 52500 64100 118000 138000
2022-09-20 06:45 1.40 43200 167000 (2019) 49400 (2021) 89100 51300 52500 64100 118000 138000
2022-09-20 05:45 1.38 43100 167000 (2019) 49400 (2021) 89100 51300 52500 64100 118000 138000
2022-09-20 04:45 1.38 43100 167000 (2019) 49400 (2021) 89100 51300 52500 64100 118000 138000
2022-09-20 03:45 1.38 43100 167000 (2019) 49400 (2021) 89100 51300 52500 64100 118000 138000
2022-09-20 02:45 1.37 43000 167000 (2019) 49400 (2021) 89100 51300 52500 64100 118000 138000
2022-09-20 01:45 1.43 43300 167000 (2019) 49400 (2021) 89100 51300 52500 64100 118000 138000
2022-09-20 00:45 1.40 43200 167000 (2019) 49400 (2021) 89100 51300 52500 64100 118000 138000
2022-09-19 23:45 1.40 43200 164000 (2019) 49500 (2017) 90900 50000 50300 65800 133000 145000
2022-09-19 22:45 1.40 43200 164000 (2019) 49500 (2017) 90900 50000 50300 65800 133000 145000
2022-09-19 21:45 1.39 43100 164000 (2019) 49500 (2017) 90900 50000 50300 65800 133000 145000
2022-09-19 20:45 1.39 43100 164000 (2019) 49500 (2017) 90900 50000 50300 65800 133000 145000
2022-09-19 19:45 1.42 43300 164000 (2019) 49500 (2017) 90900 50000 50300 65800 133000 145000
2022-09-19 18:45 1.37 43000 164000 (2019) 49500 (2017) 90900 50000 50300 65800 133000 145000
2022-09-19 17:45 1.41 43200 164000 (2019) 49500 (2017) 90900 50000 50300 65800 133000 145000
2022-09-19 16:45 1.41 43200 164000 (2019) 49500 (2017) 90900 50000 50300 65800 133000 145000
2022-09-19 15:45 1.41 43200 164000 (2019) 49500 (2017) 90900 50000 50300 65800 133000 145000
2022-09-19 14:45 1.41 43200 164000 (2019) 49500 (2017) 90900 50000 50300 65800 133000 145000
2022-09-19 13:45 1.41 43200 164000 (2019) 49500 (2017) 90900 50000 50300 65800 133000 145000
2022-09-19 12:45 1.41 43200 164000 (2019) 49500 (2017) 90900 50000 50300 65800 133000 145000
2022-09-19 11:45 1.41 43200 164000 (2019) 49500 (2017) 90900 50000 50300 65800 133000 145000
2022-09-19 10:45 1.41 43200 164000 (2019) 49500 (2017) 90900 50000 50300 65800 133000 145000
2022-09-19 09:45 1.41 43200 164000 (2019) 49500 (2017) 90900 50000 50300 65800 133000 145000
2022-09-19 08:45 1.41 43200 164000 (2019) 49500 (2017) 90900 50000 50300 65800 133000 145000
2022-09-19 07:45 1.40 43200 164000 (2019) 49500 (2017) 90900 50000 50300 65800 133000 145000
2022-09-19 06:45 1.40 43200 164000 (2019) 49500 (2017) 90900 50000 50300 65800 133000 145000
2022-09-19 05:45 1.40 43200 164000 (2019) 49500 (2017) 90900 50000 50300 65800 133000 145000
2022-09-19 04:45 1.40 43200 164000 (2019) 49500 (2017) 90900 50000 50300 65800 133000 145000
2022-09-19 03:45 1.39 43100 164000 (2019) 49500 (2017) 90900 50000 50300 65800 133000 145000
2022-09-19 02:45 1.39 43100 164000 (2019) 49500 (2017) 90900 50000 50300 65800 133000 145000
2022-09-19 01:45 1.39 43100 164000 (2019) 49500 (2017) 90900 50000 50300 65800 133000 145000
2022-09-19 00:45 1.38 43100 164000 (2019) 49500 (2017) 90900 50000 50300 65800 133000 145000
2022-09-18 23:45 1.37 43000 167000 (2016) 49400 (2017) 95700 51000 52100 65700 165000 166000
2022-09-18 22:45 1.39 43100 167000 (2016) 49400 (2017) 95700 51000 52100 65700 165000 166000
2022-09-18 21:45 1.38 43100 167000 (2016) 49400 (2017) 95700 51000 52100 65700 165000 166000
2022-09-18 20:45 1.37 43000 167000 (2016) 49400 (2017) 95700 51000 52100 65700 165000 166000
2022-09-18 19:45 1.36 42900 167000 (2016) 49400 (2017) 95700 51000 52100 65700 165000 166000
2022-09-18 18:45 1.35 42900 167000 (2016) 49400 (2017) 95700 51000 52100 65700 165000 166000
2022-09-18 17:45 1.33 42800 167000 (2016) 49400 (2017) 95700 51000 52100 65700 165000 166000
2022-09-18 16:45 1.34 42800 167000 (2016) 49400 (2017) 95700 51000 52100 65700 165000 166000
2022-09-18 15:45 1.34 42800 167000 (2016) 49400 (2017) 95700 51000 52100 65700 165000 166000
2022-09-18 14:45 1.34 42800 167000 (2016) 49400 (2017) 95700 51000 52100 65700 165000 166000
2022-09-18 13:45 1.33 42800 167000 (2016) 49400 (2017) 95700 51000 52100 65700 165000 166000
2022-09-18 12:45 1.36 42900 167000 (2016) 49400 (2017) 95700 51000 52100 65700 165000 166000
2022-09-18 11:45 1.36 42900 167000 (2016) 49400 (2017) 95700 51000 52100 65700 165000 166000
2022-09-18 10:45 1.35 42900 167000 (2016) 49400 (2017) 95700 51000 52100 65700 165000 166000
2022-09-18 09:45 1.34 42800 167000 (2016) 49400 (2017) 95700 51000 52100 65700 165000 166000
2022-09-18 08:45 1.33 42800 167000 (2016) 49400 (2017) 95700 51000 52100 65700 165000 166000
2022-09-18 07:45 1.32 42700 167000 (2016) 49400 (2017) 95700 51000 52100 65700 165000 166000
2022-09-18 06:45 1.32 42700 167000 (2016) 49400 (2017) 95700 51000 52100 65700 165000 166000
2022-09-18 05:45 1.30 42600 167000 (2016) 49400 (2017) 95700 51000 52100 65700 165000 166000
2022-09-18 04:45 1.30 42600 167000 (2016) 49400 (2017) 95700 51000 52100 65700 165000 166000
2022-09-18 03:45 1.30 42600 167000 (2016) 49400 (2017) 95700 51000 52100 65700 165000 166000
2022-09-18 02:45 1.29 42600 167000 (2016) 49400 (2017) 95700 51000 52100 65700 165000 166000
2022-09-18 01:45 1.29 42600 167000 (2016) 49400 (2017) 95700 51000 52100 65700 165000 166000
2022-09-18 00:45 1.31 42700 167000 (2016) 49400 (2017) 95700 51000 52100 65700 165000 166000

A total of 189 rows are displayed for years 2015 through 2021.